Main page
METAR-TAF:

METAR-TAF

Airports :

Karpathos Island National Airport

Karpathos, Greece

latitude: 35-24-51N, longitude: 027-08-54E, elevation: 6 m

Current weather observation

The report was made 23 minutes ago, at 08:50 UTC
Wind 15 kt from the Northwest
Temperature 24°C
Humidity 61%
Pressure 1017 hPa
Visibility 10 km or more
Few clouds at a height of 1800 ft, Towering cumulus.
Scattered clouds at a height of 2500 ft

METAR: LGKP 150850Z 31015KT 9999 FEW018TCU SCT025 24/16 Q1017

Time: 12:13 (09:13 UTC)

Forecast

The report was made 1 hour and 13 minutes ago, at 08:00 UTC
Forecast valid from 15 at 09 UTC to 15 at 18 UTC
Wind 15 kt from the Northwest
Visibility 10 km or more
Few clouds at a height of 1800 ft

TAF: LGKP 150800Z 1509/1518 32015KT 9999 FEW018

Weather observations and forecasts of more than 4000 airports (METAR and TAF reports).

The available stations are represented by yellow and red dots on the map.

Hover mouse over dot to see the name of the station.

Then click to see weather observations and forecasts.

To change the map : click on the green buttons with a black cross to zoom in, on the green button with a dash to zoom out, or on the green arrows for adjacent maps.


METAR-TAF: